Time;durP1;ratioP1;P1;durP2;ratioP2;P2;SDS_P1;SDS_P2;PMS_P1;PMS_P2;Temp;Humidity;BMP_temperature;BMP_pressure;BME280_temperature;BME280_humidity;BME280_pressure;Samples;Min_cycle;Max_cycle;Signal;HPM_P1;HPM_P2
2021/11/27 00:00:32;;;;;;;3.47;1.30;;;5.00;99.90;;;;;;5034139;28;20215;-78
2021/11/27 00:02:59;;;;;;;4.17;1.50;;;5.10;99.90;;;;;;5034469;28;20422;-78
2021/11/27 00:05:27;;;;;;;4.30;1.30;;;5.10;99.90;;;;;;5033897;28;20809;-78
2021/11/27 00:07:54;;;;;;;3.93;1.40;;;5.10;99.90;;;;;;5033960;28;20424;-78
2021/11/27 00:10:24;;;;;;;2.73;1.20;;;5.10;99.90;;;;;;5034179;28;20435;-78
2021/11/27 00:12:50;;;;;;;2.50;1.00;;;5.10;99.90;;;;;;5033772;28;20432;-81
2021/11/27 00:15:17;;;;;;;3.13;1.50;;;5.10;99.90;;;;;;5033886;28;20427;-81
2021/11/27 00:17:43;;;;;;;6.43;1.30;;;5.10;99.90;;;;;;5033412;28;20479;-78
2021/11/27 00:20:14;;;;;;;2.30;0.90;;;5.10;99.90;;;;;;5033717;28;20469;-78
2021/11/27 00:22:40;;;;;;;2.37;1.03;;;5.10;99.90;;;;;;5034378;28;20419;-81
2021/11/27 00:25:08;;;;;;;2.40;1.00;;;5.10;99.90;;;;;;5032669;28;20499;-80
2021/11/27 00:27:34;;;;;;;2.20;1.00;;;5.10;99.90;;;;;;5033340;28;20582;-81
2021/11/27 00:30:00;;;;;;;2.70;1.00;;;5.10;99.90;;;;;;5034942;28;20451;-80
2021/11/27 00:32:26;;;;;;;2.40;1.10;;;5.20;99.90;;;;;;5033071;28;20477;-81
2021/11/27 00:34:52;;;;;;;2.00;0.80;;;5.10;99.90;;;;;;5033470;28;20428;-81
2021/11/27 00:37:18;;;;;;;2.17;0.83;;;5.20;99.90;;;;;;5033382;28;20268;-80
2021/11/27 00:39:44;;;;;;;2.00;0.80;;;5.10;99.90;;;;;;5033100;28;20430;-80
2021/11/27 00:42:10;;;;;;;2.17;0.90;;;5.10;99.90;;;;;;5032774;28;20475;-80
2021/11/27 00:44:35;;;;;;;2.40;0.90;;;5.20;99.90;;;;;;5032894;28;20426;-80
2021/11/27 00:47:01;;;;;;;2.20;1.00;;;5.20;99.90;;;;;;5032829;28;20255;-80
2021/11/27 00:49:27;;;;;;;2.33;0.90;;;5.30;99.90;;;;;;5036036;28;20206;-80
2021/11/27 00:51:53;;;;;;;2.17;0.77;;;5.20;99.90;;;;;;5035686;28;20429;-81
2021/11/27 00:54:22;;;;;;;3.17;0.80;;;5.30;99.90;;;;;;5035081;28;20428;-81
2021/11/27 00:56:49;;;;;;;3.83;0.87;;;5.30;99.90;;;;;;5035507;28;20232;-80
2021/11/27 00:59:15;;;;;;;2.00;0.80;;;5.30;99.90;;;;;;5034804;28;20429;-80
2021/11/27 01:01:43;;;;;;;2.33;0.90;;;5.30;99.90;;;;;;5034475;28;20462;-81
2021/11/27 01:04:09;;;;;;;2.20;0.93;;;5.20;99.90;;;;;;5033997;28;20459;-81
2021/11/27 01:06:35;;;;;;;2.30;0.90;;;5.30;99.90;;;;;;5034430;28;20457;-81
2021/11/27 01:09:08;;;;;;;3.60;1.03;;;5.20;99.90;;;;;;5034593;28;20413;-80
2021/11/27 01:11:47;;;;;;;2.30;1.00;;;5.30;99.90;;;;;;5035239;28;20418;-80
2021/11/27 01:14:17;;;;;;;2.10;0.80;;;5.20;99.90;;;;;;5033765;28;20456;-80
2021/11/27 01:16:46;;;;;;;3.30;0.90;;;5.20;99.90;;;;;;5034700;28;20480;-80
2021/11/27 01:19:13;;;;;;;2.30;1.13;;;5.20;99.90;;;;;;5034627;28;20893;-81
2021/11/27 01:21:41;;;;;;;2.77;1.00;;;5.20;99.90;;;;;;5034652;28;21065;-81
2021/11/27 01:24:11;;;;;;;2.10;0.90;;;5.20;99.90;;;;;;5034053;28;20417;-80
2021/11/27 01:26:38;;;;;;;2.00;0.80;;;5.20;99.90;;;;;;5034090;28;20627;-80
2021/11/27 01:29:05;;;;;;;2.43;1.00;;;5.10;99.90;;;;;;5033757;28;20418;-80
2021/11/27 01:31:31;;;;;;;2.10;0.90;;;5.20;99.90;;;;;;5034096;28;20470;-81
2021/11/27 01:33:57;;;;;;;2.30;1.00;;;5.10;99.90;;;;;;5033376;28;20586;-80
2021/11/27 01:36:23;;;;;;;2.37;0.90;;;5.20;99.90;;;;;;5033515;28;20812;-80
2021/11/27 01:38:49;;;;;;;2.20;1.00;;;5.20;99.90;;;;;;5033620;28;20744;-80
2021/11/27 01:41:15;;;;;;;2.30;1.00;;;5.30;99.90;;;;;;5033336;28;20211;-81
2021/11/27 01:43:42;;;;;;;2.10;0.83;;;5.30;99.90;;;;;;5033714;28;20471;-81
2021/11/27 01:46:08;;;;;;;2.10;0.83;;;5.30;99.90;;;;;;5032877;28;20805;-81
2021/11/27 01:48:34;;;;;;;2.10;0.80;;;5.30;99.90;;;;;;5036010;28;20421;-81
2021/11/27 01:51:07;;;;;;;2.10;0.70;;;5.30;99.90;;;;;;5036116;28;20512;-81
2021/11/27 01:53:36;;;;;;;2.23;0.80;;;5.30;99.90;;;;;;5037289;28;20425;-81
2021/11/27 01:56:04;;;;;;;3.30;0.90;;;5.40;99.90;;;;;;5035911;28;20454;-81
2021/11/27 01:58:31;;;;;;;2.60;1.00;;;5.30;99.90;;;;;;5036216;28;20441;-81
2021/11/27 02:01:03;;;;;;;2.40;0.90;;;5.30;99.90;;;;;;5035550;28;20471;-81
2021/11/27 02:03:29;;;;;;;2.30;1.00;;;5.30;99.90;;;;;;5035763;28;20449;-81
2021/11/27 02:05:55;;;;;;;2.00;0.77;;;5.40;99.90;;;;;;5035312;28;20477;-81
2021/11/27 02:08:21;;;;;;;2.30;0.90;;;5.30;99.90;;;;;;5035051;28;20422;-80
2021/11/27 02:10:47;;;;;;;2.20;0.73;;;5.40;99.90;;;;;;5034392;28;20183;-80
2021/11/27 02:13:13;;;;;;;3.03;1.17;;;5.40;99.90;;;;;;5035646;28;20491;-80
2021/11/27 02:15:39;;;;;;;2.10;0.80;;;5.40;99.90;;;;;;5034427;28;20875;-81
2021/11/27 02:18:06;;;;;;;2.30;0.90;;;5.30;99.90;;;;;;5034817;28;20420;-81
2021/11/27 02:20:38;;;;;;;2.50;0.97;;;5.40;99.90;;;;;;5033679;28;20469;-81
2021/11/27 02:23:04;;;;;;;2.30;0.90;;;5.30;99.90;;;;;;5033724;28;20496;-81
2021/11/27 02:25:31;;;;;;;7.03;1.00;;;5.30;99.90;;;;;;5034129;28;20976;-81
2021/11/27 02:27:58;;;;;;;2.20;0.90;;;5.30;99.90;;;;;;5033579;28;20419;-81
2021/11/27 02:30:24;;;;;;;2.30;1.00;;;5.40;99.90;;;;;;5033401;28;20437;-81
2021/11/27 02:32:52;;;;;;;2.50;1.07;;;5.40;99.90;;;;;;5033237;28;20422;-81
2021/11/27 02:35:18;;;;;;;2.40;0.90;;;5.40;99.90;;;;;;5033475;28;20433;-81
2021/11/27 02:37:44;;;;;;;2.30;0.90;;;5.40;99.90;;;;;;5033167;28;20460;-81
2021/11/27 02:40:11;;;;;;;2.20;1.00;;;5.40;99.90;;;;;;5032882;28;20548;-80
2021/11/27 02:42:37;;;;;;;2.30;0.90;;;5.40;99.90;;;;;;5032474;28;20420;-81
2021/11/27 02:45:05;;;;;;;2.53;1.00;;;5.50;99.90;;;;;;5032757;28;20513;-81
2021/11/27 02:47:31;;;;;;;2.57;1.20;;;5.50;99.90;;;;;;5033672;28;20675;-81
2021/11/27 02:49:59;;;;;;;2.60;1.43;;;5.50;99.90;;;;;;5036775;28;20418;-81
2021/11/27 02:52:26;;;;;;;2.37;1.20;;;5.60;99.90;;;;;;5035923;28;20441;-80
2021/11/27 02:54:52;;;;;;;2.63;1.33;;;5.60;99.90;;;;;;5035765;28;20899;-81
2021/11/27 02:57:18;;;;;;;4.20;1.77;;;5.40;99.90;;;;;;5035310;28;20469;-81
2021/11/27 02:59:44;;;;;;;2.83;1.83;;;5.50;99.90;;;;;;5035434;28;20800;-81
2021/11/27 03:02:11;;;;;;;3.53;1.90;;;5.40;99.90;;;;;;5035299;28;20181;-80
2021/11/27 03:04:38;;;;;;;4.00;2.10;;;5.40;99.90;;;;;;5035463;28;20271;-80
2021/11/27 03:07:05;;;;;;;4.30;2.80;;;5.40;99.90;;;;;;5035495;28;20454;-80
2021/11/27 03:09:32;;;;;;;4.50;2.87;;;5.30;99.90;;;;;;5035760;28;20428;-80
2021/11/27 03:11:58;;;;;;;3.10;1.83;;;5.10;99.90;;;;;;5035330;28;20920;-80
2021/11/27 03:14:26;;;;;;;3.37;1.60;;;5.00;99.90;;;;;;5035356;28;20425;-81
2021/11/27 03:16:53;;;;;;;3.83;2.20;;;5.10;99.90;;;;;;5034664;28;20444;-81
2021/11/27 03:19:19;;;;;;;4.20;2.80;;;5.00;99.90;;;;;;5034849;28;20515;-80
2021/11/27 03:21:45;;;;;;;4.43;2.70;;;4.90;99.90;;;;;;5034959;28;20508;-81
2021/11/27 03:24:11;;;;;;;5.50;3.03;;;4.80;99.90;;;;;;5034790;28;20449;-81
2021/11/27 03:26:38;;;;;;;3.67;2.57;;;4.80;99.90;;;;;;5035187;28;20457;-80
2021/11/27 03:29:04;;;;;;;4.17;3.10;;;4.80;99.90;;;;;;5034733;28;20934;-81
2021/11/27 03:31:30;;;;;;;4.10;3.00;;;4.80;99.90;;;;;;5034948;28;20774;-81
2021/11/27 03:33:56;;;;;;;5.03;3.00;;;4.60;99.90;;;;;;5034490;28;20427;-81
2021/11/27 03:36:22;;;;;;;4.53;3.00;;;4.60;99.90;;;;;;5034895;28;20502;-81
2021/11/27 03:38:48;;;;;;;6.53;3.40;;;4.60;99.90;;;;;;5034837;28;20189;-81
2021/11/27 03:41:15;;;;;;;4.73;3.07;;;4.70;99.90;;;;;;5034732;28;20502;-81
2021/11/27 03:43:42;;;;;;;4.63;2.77;;;4.80;99.90;;;;;;5034825;28;20468;-81
2021/11/27 03:46:09;;;;;;;4.00;3.10;;;4.90;99.90;;;;;;5034276;28;20480;-81
2021/11/27 03:48:38;;;;;;;4.90;3.10;;;4.90;99.90;;;;;;5034281;28;20492;-81
2021/11/27 03:51:07;;;;;;;5.47;3.60;;;5.00;99.90;;;;;;5034167;28;20426;-81
2021/11/27 03:53:36;;;;;;;7.10;3.67;;;5.00;99.90;;;;;;5033841;28;20431;-81
2021/11/27 03:56:20;;;;;;;4.73;3.07;;;5.00;99.90;;;;;;5033788;28;20541;-81
2021/11/27 03:58:47;;;;;;;4.70;3.13;;;4.80;99.90;;;;;;5032011;28;20429;-81
2021/11/27 04:01:15;;;;;;;4.13;2.93;;;4.90;99.90;;;;;;5034625;28;20519;-81
2021/11/27 04:03:43;;;;;;;4.87;3.07;;;5.00;99.90;;;;;;5033491;28;20421;-81
2021/11/27 04:06:09;;;;;;;4.70;2.67;;;4.90;99.90;;;;;;5033575;28;20449;-81
2021/11/27 04:08:35;;;;;;;4.17;2.60;;;5.00;99.90;;;;;;5033386;28;20483;-81
2021/11/27 04:11:01;;;;;;;4.43;2.30;;;4.90;99.90;;;;;;5033785;28;20427;-81
2021/11/27 04:13:27;;;;;;;4.53;2.63;;;4.90;99.90;;;;;;5033750;28;20436;-80
2021/11/27 04:15:53;;;;;;;3.83;2.50;;;5.00;99.90;;;;;;5033479;28;20493;-80
2021/11/27 04:18:19;;;;;;;4.83;3.00;;;4.80;99.90;;;;;;5033807;28;20436;-81
2021/11/27 04:20:45;;;;;;;5.03;2.97;;;4.70;99.90;;;;;;5033026;28;20504;-81
2021/11/27 04:23:12;;;;;;;4.97;3.60;;;4.70;99.90;;;;;;5033919;28;20921;-81
2021/11/27 04:25:39;;;;;;;5.23;3.80;;;4.70;99.90;;;;;;5033024;28;20536;-81
2021/11/27 04:28:05;;;;;;;5.60;3.40;;;4.80;99.90;;;;;;5033532;28;20483;-81
2021/11/27 04:30:32;;;;;;;6.10;4.00;;;4.90;99.90;;;;;;5033191;28;20432;-81
2021/11/27 04:33:01;;;;;;;4.43;3.60;;;4.90;99.90;;;;;;5033189;28;20189;-81
2021/11/27 04:35:29;;;;;;;5.20;3.87;;;4.90;99.90;;;;;;5033022;28;20428;-81
2021/11/27 04:37:55;;;;;;;6.57;3.90;;;5.00;99.90;;;;;;5033246;28;20760;-80
2021/11/27 04:40:22;;;;;;;5.10;3.33;;;5.00;99.90;;;;;;5032705;28;20494;-80
2021/11/27 04:42:48;;;;;;;4.80;3.67;;;5.00;99.90;;;;;;5033139;28;20938;-80
2021/11/27 04:45:17;;;;;;;5.63;3.43;;;5.10;99.90;;;;;;5036025;28;20432;-81
2021/11/27 04:47:43;;;;;;;6.17;4.23;;;5.10;99.90;;;;;;5038108;28;20188;-81
2021/11/27 04:50:11;;;;;;;4.87;3.60;;;5.00;99.90;;;;;;5037441;28;20441;-81
2021/11/27 04:52:38;;;;;;;4.80;3.23;;;5.00;99.90;;;;;;5037678;28;20419;-81
2021/11/27 04:55:06;;;;;;;5.47;3.50;;;5.00;99.90;;;;;;5036671;28;20435;-81
2021/11/27 04:57:33;;;;;;;5.13;3.30;;;4.80;99.90;;;;;;5036980;28;20491;-81
2021/11/27 04:59:58;;;;;;;5.40;3.60;;;4.70;99.90;;;;;;5056551;22;20500;-81
2021/11/27 05:02:24;;;;;;;6.20;3.80;;;4.60;99.90;;;;;;5034966;28;20817;-82
2021/11/27 05:04:50;;;;;;;4.30;3.27;;;4.60;99.90;;;;;;5034369;28;20409;-83
2021/11/27 05:07:16;;;;;;;5.57;4.30;;;4.70;99.90;;;;;;5033083;28;20416;-82
2021/11/27 05:09:41;;;;;;;4.47;3.03;;;4.40;99.90;;;;;;5032213;28;20204;-83
2021/11/27 05:12:07;;;;;;;5.43;3.63;;;4.40;99.90;;;;;;5034179;28;20274;-83
2021/11/27 05:14:34;;;;;;;7.17;3.53;;;4.40;99.90;;;;;;5033841;28;20335;-83
2021/11/27 05:16:59;;;;;;;6.80;4.03;;;4.40;99.90;;;;;;5032528;28;20459;-84
2021/11/27 05:19:25;;;;;;;8.43;4.80;;;4.40;99.90;;;;;;5033526;28;20452;-84
2021/11/27 05:21:51;;;;;;;5.80;5.00;;;4.40;99.90;;;;;;5033798;28;20461;-84
2021/11/27 05:24:17;;;;;;;6.00;3.60;;;4.40;99.90;;;;;;5032380;28;20724;-84
2021/11/27 05:26:42;;;;;;;6.80;4.30;;;4.40;99.90;;;;;;5032105;28;20255;-85
2021/11/27 05:29:08;;;;;;;5.90;4.30;;;4.40;99.90;;;;;;5032322;28;20485;-81
2021/11/27 05:31:34;;;;;;;6.83;4.30;;;4.40;99.90;;;;;;5032004;28;20744;-82
2021/11/27 05:36:32;;;;;;;5.90;4.00;;;4.50;99.90;;;;;;5033494;28;20250;-83
2021/11/27 05:38:59;;;;;;;8.30;3.73;;;4.50;99.90;;;;;;5033459;28;20521;-82
2021/11/27 05:41:26;;;;;;;5.40;3.87;;;4.50;99.90;;;;;;5031674;28;20825;-81
2021/11/27 05:43:53;;;;;;;7.33;3.43;;;4.60;99.90;;;;;;5031752;28;20426;-83
2021/11/27 05:46:18;;;;;;;3.80;2.90;;;4.70;99.90;;;;;;5032225;28;20480;-81
2021/11/27 05:48:44;;;;;;;5.40;3.70;;;4.70;99.90;;;;;;5031960;28;20445;-82
2021/11/27 05:51:10;;;;;;;7.50;3.27;;;4.70;99.90;;;;;;5031295;28;20284;-82
2021/11/27 05:53:35;;;;;;;5.47;3.50;;;4.70;99.90;;;;;;5031781;28;20193;-84
2021/11/27 05:56:01;;;;;;;5.77;3.90;;;4.70;99.90;;;;;;5032731;28;20186;-82
2021/11/27 05:58:27;;;;;;;5.07;3.37;;;4.60;99.90;;;;;;5033001;28;20237;-82
2021/11/27 06:00:52;;;;;;;5.40;3.37;;;4.60;99.90;;;;;;5032858;28;20219;-81
2021/11/27 06:03:18;;;;;;;5.50;3.30;;;4.60;99.90;;;;;;5032807;28;20705;-81
2021/11/27 06:05:44;;;;;;;6.90;4.23;;;4.70;99.90;;;;;;5033003;28;20183;-83
2021/11/27 06:08:10;;;;;;;7.47;4.90;;;4.70;99.90;;;;;;5031495;28;20198;-82
2021/11/27 06:10:36;;;;;;;7.50;5.00;;;4.70;99.90;;;;;;5033310;28;20202;-82
2021/11/27 06:13:03;;;;;;;8.60;5.77;;;4.80;99.90;;;;;;5032535;28;20489;-81
2021/11/27 06:15:29;;;;;;;8.90;5.97;;;4.70;99.90;;;;;;5031355;28;20419;-83
2021/11/27 06:17:55;;;;;;;11.03;5.93;;;4.80;99.90;;;;;;5032597;28;20417;-83
2021/11/27 06:20:21;;;;;;;10.17;6.10;;;4.80;99.90;;;;;;5031087;28;20881;-83
2021/11/27 06:22:47;;;;;;;9.70;6.73;;;4.80;99.90;;;;;;5034447;28;20225;-82
2021/11/27 06:25:13;;;;;;;10.60;6.93;;;4.80;99.90;;;;;;5035623;28;20417;-83
2021/11/27 06:27:39;;;;;;;9.73;6.53;;;4.90;99.90;;;;;;5035123;28;20976;-83
2021/11/27 06:30:08;;;;;;;8.43;6.40;;;5.00;99.90;;;;;;5035022;28;20869;-82
2021/11/27 06:32:35;;;;;;;9.07;6.07;;;5.00;99.90;;;;;;5034960;28;20183;-82
2021/11/27 06:35:01;;;;;;;11.00;5.70;;;5.00;99.90;;;;;;5035214;28;20959;-82
2021/11/27 06:37:27;;;;;;;9.93;6.10;;;5.00;99.90;;;;;;5036429;28;20433;-82
2021/11/27 06:39:52;;;;;;;9.67;5.97;;;5.10;99.90;;;;;;5034619;28;20218;-81
2021/11/27 06:42:19;;;;;;;8.97;6.17;;;5.10;99.90;;;;;;5036121;28;20180;-81
2021/11/27 06:44:48;;;;;;;8.53;5.73;;;5.20;99.90;;;;;;5034672;28;20182;-81
2021/11/27 06:47:19;;;;;;;10.80;5.80;;;5.30;99.90;;;;;;5036232;28;20895;-81
2021/11/27 06:49:45;;;;;;;7.73;5.97;;;5.30;99.90;;;;;;5035791;28;20944;-84
2021/11/27 06:52:12;;;;;;;8.13;5.63;;;5.30;99.90;;;;;;5034653;28;20454;-82
2021/11/27 06:54:39;;;;;;;8.80;5.20;;;5.30;99.90;;;;;;5035761;28;20419;-83
2021/11/27 06:57:05;;;;;;;10.77;5.80;;;5.40;99.90;;;;;;5034687;28;20426;-83
2021/11/27 06:59:31;;;;;;;7.97;5.40;;;5.40;99.90;;;;;;5034115;28;20541;-81
2021/11/27 07:01:56;;;;;;;8.20;5.43;;;5.40;99.90;;;;;;5035849;28;20457;-81
2021/11/27 07:04:22;;;;;;;7.43;5.37;;;5.30;99.90;;;;;;5035947;28;20449;-83
2021/11/27 07:06:48;;;;;;;10.67;6.07;;;5.30;99.90;;;;;;5035943;28;20179;-81
2021/11/27 07:09:15;;;;;;;7.50;4.73;;;5.10;99.90;;;;;;5035420;28;20196;-81
2021/11/27 07:11:41;;;;;;;9.10;5.50;;;5.10;99.90;;;;;;5034457;28;20425;-82
2021/11/27 07:14:07;;;;;;;9.07;6.07;;;5.00;99.90;;;;;;5034268;28;20937;-83
2021/11/27 07:16:32;;;;;;;8.27;5.70;;;4.90;99.90;;;;;;5035724;28;20425;-82
2021/11/27 07:18:58;;;;;;;11.17;6.70;;;4.80;99.90;;;;;;5034130;28;20213;-81
2021/11/27 07:21:23;;;;;;;11.60;6.33;;;4.80;99.90;;;;;;5035523;28;20297;-81
2021/11/27 07:23:49;;;;;;;10.00;5.60;;;4.70;99.90;;;;;;5034052;28;20185;-81
2021/11/27 07:26:15;;;;;;;12.60;6.13;;;4.70;99.90;;;;;;5035758;28;20170;-81
2021/11/27 07:28:40;;;;;;;9.77;6.33;;;4.70;99.90;;;;;;5034124;28;20661;-81
2021/11/27 07:31:06;;;;;;;8.37;6.40;;;4.60;99.90;;;;;;5034036;28;20194;-81
2021/11/27 07:33:32;;;;;;;9.80;5.80;;;4.60;99.90;;;;;;5033592;28;20185;-82
2021/11/27 07:35:57;;;;;;;8.57;6.50;;;4.60;99.90;;;;;;5034069;28;20191;-81
2021/11/27 07:38:23;;;;;;;9.90;5.83;;;4.50;99.90;;;;;;5033917;28;20280;-83
2021/11/27 07:40:49;;;;;;;10.50;6.13;;;4.50;99.90;;;;;;5035072;28;20233;-81
2021/11/27 07:43:15;;;;;;;12.60;7.03;;;4.60;99.90;;;;;;5033941;28;20228;-81
2021/11/27 07:45:40;;;;;;;10.57;7.27;;;4.50;99.90;;;;;;5033852;28;20182;-82
2021/11/27 07:48:06;;;;;;;13.93;8.47;;;4.40;99.90;;;;;;5033919;28;20678;-81
2021/11/27 07:50:32;;;;;;;13.47;7.37;;;4.30;99.90;;;;;;5033299;28;20273;-81
2021/11/27 07:52:58;;;;;;;10.03;6.77;;;4.30;99.90;;;;;;5033519;28;20195;-82
2021/11/27 07:55:24;;;;;;;10.83;6.20;;;4.30;99.90;;;;;;5034534;28;20428;-85
2021/11/27 07:57:49;;;;;;;8.90;6.00;;;4.30;99.90;;;;;;5042426;28;20178;-84
2021/11/27 08:00:15;;;;;;;9.83;5.93;;;4.30;99.90;;;;;;5041145;28;20224;-84
2021/11/27 08:02:41;;;;;;;11.90;6.07;;;4.30;99.90;;;;;;5042187;28;20594;-82
2021/11/27 08:05:07;;;;;;;13.27;6.83;;;4.30;99.90;;;;;;5041348;28;20184;-82
2021/11/27 08:07:35;;;;;;;9.87;5.70;;;4.30;99.90;;;;;;5040119;28;20239;-83
2021/11/27 08:10:02;;;;;;;7.70;5.40;;;4.30;99.90;;;;;;5039719;28;20441;-81
2021/11/27 08:12:28;;;;;;;9.50;6.50;;;4.30;99.90;;;;;;5040457;28;20437;-84
2021/11/27 08:14:53;;;;;;;11.07;5.90;;;4.30;99.90;;;;;;5039692;28;20421;-85
2021/11/27 08:17:19;;;;;;;11.30;6.07;;;4.30;99.90;;;;;;5039806;28;20184;-84
2021/11/27 08:19:44;;;;;;;9.00;6.50;;;4.40;99.90;;;;;;5040472;28;20193;-84
2021/11/27 08:22:10;;;;;;;10.97;7.07;;;4.40;99.90;;;;;;5039290;28;20305;-84
2021/11/27 08:24:35;;;;;;;9.10;5.20;;;4.50;99.90;;;;;;5040995;28;20186;-84
2021/11/27 08:27:01;;;;;;;10.67;5.23;;;4.50;99.90;;;;;;5038593;28;20558;-82
2021/11/27 08:29:27;;;;;;;11.03;6.30;;;4.50;99.90;;;;;;5039119;28;20451;-84
2021/11/27 08:31:52;;;;;;;9.30;5.50;;;4.60;99.90;;;;;;5040450;28;20193;-84
2021/11/27 08:34:19;;;;;;;10.47;6.00;;;4.70;99.90;;;;;;5038685;28;20209;-83
2021/11/27 08:36:45;;;;;;;9.20;5.10;;;4.70;99.90;;;;;;5039643;28;20179;-85
2021/11/27 08:39:10;;;;;;;7.53;5.37;;;4.80;99.90;;;;;;5039020;28;20458;-84
2021/11/27 08:41:36;;;;;;;12.73;6.50;;;5.00;99.90;;;;;;5038802;28;20300;-84
2021/11/27 08:44:03;;;;;;;10.77;5.37;;;5.10;99.90;;;;;;5039480;28;20704;-84
2021/11/27 08:46:28;;;;;;;8.80;5.23;;;5.20;99.90;;;;;;5024917;28;20814;-83
2021/11/27 08:48:54;;;;;;;8.10;5.37;;;5.30;99.90;;;;;;5033818;28;20536;-84
2021/11/27 08:51:19;;;;;;;9.17;5.43;;;5.50;99.90;;;;;;5032577;28;20196;-81
2021/11/27 08:53:45;;;;;;;10.30;5.40;;;5.60;99.90;;;;;;5036861;28;20175;-84
2021/11/27 08:56:11;;;;;;;8.00;5.77;;;5.80;99.90;;;;;;5035067;28;20188;-84
2021/11/27 08:58:38;;;;;;;7.53;5.80;;;5.80;99.90;;;;;;5035536;28;20552;-84
2021/11/27 09:01:07;;;;;;;7.93;5.47;;;5.90;99.90;;;;;;5035123;28;20965;-83
2021/11/27 09:03:33;;;;;;;10.80;6.10;;;5.80;99.90;;;;;;5035985;28;21202;-85
2021/11/27 09:06:00;;;;;;;7.27;5.17;;;5.70;99.90;;;;;;5034564;28;20450;-84
2021/11/27 09:08:27;;;;;;;10.20;6.10;;;5.60;99.90;;;;;;5027440;28;20216;-82
2021/11/27 09:10:53;;;;;;;8.60;5.83;;;5.50;99.90;;;;;;5031065;28;20430;-82
2021/11/27 09:13:19;;;;;;;12.50;7.00;;;5.40;99.90;;;;;;5032468;28;20426;-81
2021/11/27 09:15:45;;;;;;;11.77;6.43;;;5.40;99.90;;;;;;5014144;28;20748;-81
2021/11/27 09:18:11;;;;;;;15.33;6.33;;;5.40;99.90;;;;;;5014541;28;20835;-81
2021/11/27 09:20:38;;;;;;;9.40;6.13;;;5.30;99.90;;;;;;5014339;28;20765;-81
2021/11/27 09:23:04;;;;;;;6.87;5.57;;;5.30;99.90;;;;;;5028829;28;20419;-83
2021/11/27 09:25:30;;;;;;;13.00;6.50;;;5.40;99.90;;;;;;5011876;28;20419;-83
2021/11/27 09:27:57;;;;;;;11.23;6.73;;;5.40;99.90;;;;;;5011738;28;20469;-83
2021/11/27 09:30:27;;;;;;;7.60;5.83;;;5.40;99.90;;;;;;5014407;28;21000;-81
2021/11/27 09:32:53;;;;;;;9.23;6.10;;;5.40;99.90;;;;;;5013861;28;20410;-83
2021/11/27 09:35:20;;;;;;;8.43;5.83;;;5.40;99.90;;;;;;5028926;28;20438;-83
2021/11/27 09:37:46;;;;;;;7.47;5.33;;;5.40;99.90;;;;;;5012801;28;20429;-81
2021/11/27 09:40:13;;;;;;;8.77;5.63;;;5.40;99.90;;;;;;5011894;28;20568;-81
2021/11/27 09:42:39;;;;;;;8.50;6.33;;;5.50;99.90;;;;;;5013198;28;20423;-83
2021/11/27 09:45:06;;;;;;;10.50;6.30;;;5.50;99.90;;;;;;5013359;28;20501;-82
2021/11/27 09:47:33;;;;;;;9.37;5.20;;;5.60;99.90;;;;;;5028739;28;20421;-82
2021/11/27 09:50:02;;;;;;;10.63;6.30;;;5.70;99.90;;;;;;5012994;28;20999;-83
2021/11/27 09:52:28;;;;;;;13.23;5.37;;;5.70;99.90;;;;;;5013395;28;20510;-81
2021/11/27 09:54:54;;;;;;;7.90;6.03;;;5.80;99.90;;;;;;5011786;28;20452;-81
2021/11/27 09:57:19;;;;;;;11.73;6.80;;;5.80;99.90;;;;;;5011393;28;20193;-82
2021/11/27 09:59:46;;;;;;;8.30;5.23;;;5.80;99.90;;;;;;5011987;28;20338;-83
2021/11/27 10:02:14;;;;;;;7.07;4.70;;;5.80;99.90;;;;;;5011290;28;20227;-83
2021/11/27 10:04:48;;;;;;;9.37;4.63;;;5.80;99.90;;;;;;5011154;28;20838;-81
2021/11/27 10:07:17;;;;;;;8.00;4.03;;;5.90;99.90;;;;;;5015296;28;20407;-82
2021/11/27 10:09:45;;;;;;;4.80;3.03;;;6.20;99.90;;;;;;5030329;28;20462;-82
2021/11/27 10:12:11;;;;;;;8.07;3.60;;;6.30;99.90;;;;;;5015569;28;20469;-81
2021/11/27 10:14:39;;;;;;;7.23;4.17;;;6.40;99.90;;;;;;5015347;28;20451;-84
2021/11/27 10:17:16;;;;;;;5.57;3.80;;;6.50;99.90;;;;;;5014472;28;20463;-84
2021/11/27 10:19:42;;;;;;;5.47;3.23;;;6.60;99.90;;;;;;5030186;28;20450;-81
2021/11/27 10:22:17;;;;;;;5.13;3.50;;;6.60;99.90;;;;;;5014241;28;20850;-84
2021/11/27 10:24:46;;;;;;;5.30;3.80;;;6.60;99.90;;;;;;5015931;28;20176;-81
2021/11/27 10:27:25;;;;;;;4.87;3.20;;;6.40;99.90;;;;;;5013871;28;20435;-83
2021/11/27 10:30:00;;;;;;;8.03;4.23;;;6.20;99.90;;;;;;5015156;28;20935;-84
2021/11/27 10:32:34;;;;;;;7.30;3.97;;;6.00;99.90;;;;;;5017564;28;20823;-83
2021/11/27 10:35:00;;;;;;;4.97;3.17;;;6.00;99.90;;;;;;5019898;28;20510;-84
2021/11/27 10:37:31;;;;;;;7.70;3.80;;;6.00;99.90;;;;;;5017071;28;20428;-82
2021/11/27 10:39:59;;;;;;;4.80;3.03;;;6.00;99.90;;;;;;5016426;28;20447;-83
2021/11/27 10:42:25;;;;;;;6.67;3.80;;;5.90;99.90;;;;;;5016155;28;20543;-83
2021/11/27 10:44:52;;;;;;;6.20;3.37;;;6.10;99.90;;;;;;5017477;28;21000;-85
2021/11/27 10:47:19;;;;;;;7.63;3.50;;;6.20;99.90;;;;;;5017373;28;20510;-82
2021/11/27 10:49:47;;;;;;;7.33;4.07;;;6.40;99.90;;;;;;5031214;28;20447;-86
2021/11/27 10:52:15;;;;;;;6.03;3.13;;;6.50;99.90;;;;;;5014748;28;20414;-84
2021/11/27 10:54:56;;;;;;;7.70;3.10;;;6.70;99.90;;;;;;5012762;28;20431;-84
2021/11/27 10:57:33;;;;;;;3.93;2.63;;;7.10;99.90;;;;;;5011034;28;20416;-83
2021/11/27 11:00:06;;;;;;;4.30;2.97;;;7.40;99.90;;;;;;5013166;28;20836;-83
2021/11/27 11:02:35;;;;;;;7.20;2.77;;;8.70;99.90;;;;;;5015275;28;20790;-83
2021/11/27 11:05:14;;;;;;;6.13;2.63;;;10.40;99.90;;;;;;5014825;28;20421;-84
2021/11/27 11:07:41;;;;;;;7.70;2.47;;;11.50;99.90;;;;;;5014991;28;20414;-82
2021/11/27 11:10:13;;;;;;;4.30;2.80;;;12.10;99.90;;;;;;5017463;28;20447;-82
2021/11/27 11:12:43;;;;;;;4.73;2.50;;;12.30;99.90;;;;;;5017171;28;20419;-83
2021/11/27 11:15:19;;;;;;;6.00;2.70;;;12.20;99.90;;;;;;5019097;28;20412;-82
2021/11/27 11:17:46;;;;;;;6.23;3.10;;;12.10;99.90;;;;;;5016531;28;20424;-83
2021/11/27 11:20:12;;;;;;;5.60;2.70;;;11.70;99.90;;;;;;5015111;28;20443;-80
2021/11/27 11:22:38;;;;;;;4.73;2.70;;;11.20;99.90;;;;;;5016338;28;20412;-81
2021/11/27 11:25:08;;;;;;;5.73;2.80;;;10.60;99.90;;;;;;5015155;28;20181;-81
2021/11/27 11:27:35;;;;;;;8.80;3.63;;;10.40;99.90;;;;;;5016495;28;20173;-82
2021/11/27 11:30:03;;;;;;;6.73;2.30;;;10.30;99.90;;;;;;5016066;28;20427;-81
2021/11/27 11:32:29;;;;;;;5.17;2.00;;;12.00;99.90;;;;;;5017290;28;20503;-80
2021/11/27 11:34:57;;;;;;;10.73;2.60;;;14.00;99.90;;;;;;5016574;28;20436;-81
2021/11/27 11:37:25;;;;;;;5.37;2.17;;;12.70;99.90;;;;;;5018409;28;20552;-82
2021/11/27 11:39:51;;;;;;;5.20;2.40;;;13.80;99.90;;;;;;5015299;28;20436;-82
2021/11/27 11:42:18;;;;;;;5.40;2.20;;;15.20;98.70;;;;;;5016965;28;20460;-83
2021/11/27 11:44:46;;;;;;;5.03;2.53;;;14.00;95.70;;;;;;5015219;28;20424;-82
2021/11/27 11:47:13;;;;;;;5.17;2.37;;;14.00;99.10;;;;;;5031577;28;20447;-82
2021/11/27 11:49:39;;;;;;;5.50;2.70;;;14.70;98.00;;;;;;5015772;28;20432;-81
2021/11/27 11:52:23;;;;;;;5.70;3.00;;;16.40;95.30;;;;;;5014285;28;20424;-81
2021/11/27 11:54:50;;;;;;;5.43;2.47;;;17.30;91.00;;;;;;5016751;28;20420;-81
2021/11/27 11:57:15;;;;;;;8.57;3.13;;;17.60;86.20;;;;;;5016006;28;20474;-82
2021/11/27 11:59:41;;;;;;;3.87;2.10;;;18.10;80.50;;;;;;5015634;28;20452;-83
2021/11/27 12:02:27;;;;;;;4.27;2.10;;;18.00;78.30;;;;;;5019042;28;20204;-82
2021/11/27 12:05:11;;;;;;;8.00;2.40;;;17.90;78.70;;;;;;5017206;28;20195;-83
2021/11/27 12:07:52;;;;;;;7.87;2.67;;;17.90;74.30;;;;;;5016224;28;20411;-81
2021/11/27 12:10:26;;;;;;;4.90;2.10;;;17.50;72.00;;;;;;5014396;28;20468;-82
2021/11/27 12:13:07;;;;;;;5.50;2.23;;;17.60;74.60;;;;;;5013039;28;20415;-81
2021/11/27 12:15:43;;;;;;;8.43;2.70;;;18.10;72.20;;;;;;5014486;28;20938;-82
2021/11/27 12:18:16;;;;;;;11.97;3.47;;;19.10;69.70;;;;;;5014180;28;20502;-82
2021/11/27 12:20:53;;;;;;;5.53;2.73;;;18.50;67.30;;;;;;5012642;28;20455;-82
2021/11/27 12:23:42;;;;;;;6.07;2.50;;;18.50;65.50;;;;;;5012889;28;20426;-81
2021/11/27 12:26:11;;;;;;;6.47;2.67;;;18.20;62.60;;;;;;5014105;28;20495;-81
2021/11/27 12:28:41;;;;;;;6.33;2.40;;;17.90;65.50;;;;;;5013890;28;20405;-81
2021/11/27 12:31:22;;;;;;;5.47;2.20;;;16.40;65.10;;;;;;5012470;28;20424;-80
2021/11/27 12:34:02;;;;;;;5.00;2.43;;;14.70;68.40;;;;;;5013533;28;20420;-80
2021/11/27 12:36:28;;;;;;;4.03;2.00;;;13.50;76.20;;;;;;5014281;28;20466;-80
2021/11/27 12:39:10;;;;;;;6.33;2.17;;;13.20;82.30;;;;;;5012681;28;20774;-80
2021/11/27 12:41:41;;;;;;;8.27;2.30;;;12.50;84.70;;;;;;5017640;28;20633;-80
2021/11/27 12:44:25;;;;;;;7.40;3.00;;;12.40;88.30;;;;;;5014893;28;20418;-80
2021/11/27 12:47:00;;;;;;;4.30;2.10;;;13.50;88.20;;;;;;5016101;28;20798;-81
2021/11/27 12:49:32;;;;;;;5.47;2.07;;;14.20;82.10;;;;;;5017795;28;20497;-84
2021/11/27 12:52:16;;;;;;;6.20;2.37;;;13.40;82.60;;;;;;5015204;28;20452;-83
2021/11/27 12:54:44;;;;;;;6.90;3.30;;;12.30;89.40;;;;;;5017199;28;20477;-81
2021/11/27 12:57:12;;;;;;;3.97;1.90;;;13.30;93.50;;;;;;5014547;28;20431;-82
2021/11/27 12:59:44;;;;;;;6.40;2.87;;;14.90;90.30;;;;;;5015302;28;20444;-83